createdAt,value
2023-04-02T00:01:19.598Z,84.80
2023-04-02T00:04:22.131Z,83.98
2023-04-02T00:07:31.222Z,84.71
2023-04-02T00:10:03.162Z,84.74
2023-04-02T00:12:35.004Z,83.51
2023-04-02T00:15:07.586Z,84.55
2023-04-02T00:17:41.130Z,84.72
2023-04-02T00:20:20.142Z,84.54
2023-04-02T00:22:52.895Z,84.08
2023-04-02T00:25:27.940Z,83.36
2023-04-02T00:28:00.508Z,83.46
2023-04-02T00:30:33.130Z,83.01
2023-04-02T00:33:06.183Z,83.53
2023-04-02T00:35:42.324Z,83.34
2023-04-02T00:38:21.116Z,82.85
2023-04-02T00:40:56.869Z,82.08
2023-04-02T00:43:32.888Z,83.04
2023-04-02T00:46:14.171Z,81.37
2023-04-02T00:48:55.499Z,81.54
2023-04-02T00:51:33.307Z,82.01
2023-04-02T00:54:15.548Z,80.98
2023-04-02T00:56:51.657Z,81.65
2023-04-02T00:59:30.741Z,80.79
2023-04-02T01:02:26.297Z,80.89
2023-04-02T01:05:03.411Z,80.12
2023-04-02T01:07:52.450Z,80.78
2023-04-02T01:10:53.666Z,79.79
2023-04-02T01:13:37.718Z,80.43
2023-04-02T01:16:20.947Z,79.88
2023-04-02T01:19:08.652Z,80.44
2023-04-02T01:21:53.828Z,79.83
2023-04-02T01:24:31.110Z,79.81
2023-04-02T01:27:08.316Z,79.64
2023-04-02T01:29:48.496Z,79.47
2023-04-02T01:32:24.730Z,79.56
2023-04-02T01:34:58.286Z,79.31
2023-04-02T01:37:44.899Z,78.57
2023-04-02T01:40:34.923Z,80.07
2023-04-02T01:43:16.837Z,79.56
2023-04-02T01:45:50.589Z,79.19
2023-04-02T01:48:30.004Z,79.06
2023-04-02T01:51:08.134Z,79.96
2023-04-02T01:53:40.244Z,78.70
2023-04-02T01:56:12.147Z,78.95
2023-04-02T01:58:44.068Z,79.03
2023-04-02T02:01:22.559Z,79.25
2023-04-02T02:03:55.885Z,79.63
2023-04-02T02:06:28.327Z,78.24
2023-04-02T02:09:04.784Z,78.23
2023-04-02T02:11:38.413Z,78.61
2023-04-02T02:14:18.655Z,79.35
2023-04-02T02:16:56.528Z,79.35
2023-04-02T02:19:34.845Z,78.78
2023-04-02T02:22:15.404Z,78.38
2023-04-02T02:24:48.974Z,78.19
2023-04-02T02:27:48.348Z,78.77
2023-04-02T02:30:28.161Z,79.36
2023-04-02T02:33:06.592Z,78.79
2023-04-02T02:35:44.020Z,78.33
2023-04-02T02:38:32.676Z,78.11
2023-04-02T02:41:14.451Z,77.89
2023-04-02T02:43:54.216Z,77.69
2023-04-02T02:46:29.212Z,78.26
2023-04-02T02:49:06.035Z,78.20
2023-04-02T02:51:49.054Z,77.50
2023-04-02T02:54:23.203Z,78.11
2023-04-02T02:57:02.196Z,77.48
2023-04-02T02:59:35.145Z,77.20
2023-04-02T03:02:08.432Z,77.22
2023-04-02T03:04:41.877Z,77.00
2023-04-02T03:07:16.162Z,76.93
2023-04-02T03:09:55.446Z,77.79
2023-04-02T03:12:41.591Z,76.05
2023-04-02T03:15:22.436Z,76.58
2023-04-02T03:18:01.692Z,77.31
2023-04-02T03:20:46.754Z,77.21
2023-04-02T03:23:29.527Z,76.89
2023-04-02T03:26:11.267Z,77.01
2023-04-02T03:28:51.253Z,76.99
2023-04-02T03:31:29.829Z,77.03
2023-04-02T03:34:05.617Z,76.64
2023-04-02T03:36:49.056Z,76.83
2023-04-02T03:39:28.181Z,75.90
2023-04-02T03:42:05.910Z,76.61
2023-04-02T03:44:49.062Z,76.56
2023-04-02T03:47:31.829Z,76.26
2023-04-02T03:50:13.071Z,76.08
2023-04-02T03:52:46.678Z,76.56
2023-04-02T03:55:23.914Z,76.26
2023-04-02T03:58:03.620Z,75.21
2023-04-02T04:00:43.022Z,74.63
2023-04-02T04:03:22.182Z,75.56
2023-04-02T04:05:58.417Z,75.79
2023-04-02T04:08:42.349Z,75.56
2023-04-02T04:11:18.810Z,75.72
2023-04-02T04:13:58.648Z,76.41
2023-04-02T04:16:35.939Z,75.87
2023-04-02T04:19:18.084Z,75.63
2023-04-02T04:21:57.925Z,75.49
2023-04-02T04:24:32.661Z,75.18
2023-04-02T04:27:17.189Z,75.19
2023-04-02T04:29:56.825Z,74.82
2023-04-02T04:32:33.637Z,74.33
2023-04-02T04:35:15.688Z,74.61
2023-04-02T04:37:49.764Z,74.94
2023-04-02T04:40:29.635Z,75.05
2023-04-02T04:43:07.156Z,75.05
2023-04-02T04:45:49.106Z,74.51
2023-04-02T04:48:28.554Z,75.13
2023-04-02T04:51:05.830Z,74.49
2023-04-02T04:53:47.361Z,74.88
2023-04-02T04:56:29.151Z,74.17
2023-04-02T04:59:13.425Z,75.09
2023-04-02T05:01:53.313Z,74.98
2023-04-02T05:04:32.006Z,75.63
2023-04-02T05:07:12.650Z,74.82
2023-04-02T05:09:52.540Z,74.53
2023-04-02T05:12:37.289Z,74.21
2023-04-02T05:15:15.735Z,73.71
2023-04-02T05:17:53.540Z,74.43
2023-04-02T05:20:32.676Z,73.80
2023-04-02T05:23:16.792Z,74.20
2023-04-02T05:26:00.324Z,74.42
2023-04-02T05:28:44.077Z,73.94
2023-04-02T05:31:21.051Z,74.61
2023-04-02T05:33:55.036Z,73.97
2023-04-02T05:36:30.787Z,74.05
2023-04-02T05:39:04.161Z,74.60
2023-04-02T05:41:40.392Z,73.63
2023-04-02T05:44:24.385Z,73.49
2023-04-02T05:47:05.978Z,73.33
2023-04-02T05:49:48.246Z,73.32
2023-04-02T05:52:28.885Z,73.72
2023-04-02T05:55:24.542Z,73.50
2023-04-02T05:58:29.555Z,73.41
2023-04-02T06:01:07.659Z,72.65
2023-04-02T06:03:50.564Z,73.93
2023-04-02T06:06:30.491Z,72.05
2023-04-02T06:09:10.740Z,73.90
2023-04-02T06:11:49.085Z,72.45
2023-04-02T06:14:22.013Z,73.40
2023-04-02T06:16:55.143Z,72.59
2023-04-02T06:19:36.723Z,73.94
2023-04-02T06:22:19.912Z,73.55
2023-04-02T06:24:59.260Z,73.35
2023-04-02T06:27:34.295Z,72.45
2023-04-02T06:30:16.093Z,73.13
2023-04-02T06:32:49.253Z,72.68
2023-04-02T06:35:21.324Z,73.75
2023-04-02T06:37:58.007Z,73.08
2023-04-02T06:40:40.586Z,72.82
2023-04-02T06:43:23.884Z,74.75
2023-04-02T06:45:58.617Z,73.68
2023-04-02T06:48:34.777Z,73.76
2023-04-02T06:51:12.815Z,74.38
2023-04-02T06:53:51.570Z,74.54
2023-04-02T06:56:37.084Z,74.41
2023-04-02T06:59:09.480Z,74.72
2023-04-02T07:01:46.250Z,74.48
2023-04-02T07:04:21.642Z,74.48
2023-04-02T07:06:53.845Z,74.00
2023-04-02T07:09:25.924Z,74.47
2023-04-02T07:11:57.569Z,74.83
2023-04-02T07:14:30.920Z,74.32
2023-04-02T07:17:02.763Z,74.12
2023-04-02T07:19:35.708Z,74.66
2023-04-02T07:22:08.932Z,75.42
2023-04-02T07:24:40.833Z,75.14
2023-04-02T07:27:12.681Z,75.60
2023-04-02T07:29:44.522Z,75.95
2023-04-02T07:32:17.306Z,75.98
2023-04-02T07:34:50.530Z,74.91
2023-04-02T07:37:22.402Z,75.48
2023-04-02T07:39:54.307Z,74.71
2023-04-02T07:42:26.187Z,75.52
2023-04-02T07:44:58.193Z,74.79
2023-04-02T07:47:30.823Z,74.88
2023-04-02T07:50:03.817Z,74.73
2023-04-02T07:52:37.632Z,74.68
2023-04-02T07:55:12.511Z,75.40
2023-04-02T07:57:51.102Z,75.28
2023-04-02T08:00:28.322Z,74.45
2023-04-02T08:02:59.971Z,74.36
2023-04-02T08:05:33.844Z,73.70
2023-04-02T08:08:07.510Z,73.30
2023-04-02T08:10:39.287Z,73.16
2023-04-02T08:13:12.839Z,73.35
2023-04-02T08:15:45.125Z,74.94
2023-04-02T08:18:17.232Z,75.61
2023-04-02T08:20:50.186Z,75.06
2023-04-02T08:23:23.421Z,73.75
2023-04-02T08:25:55.905Z,75.05
2023-04-02T08:28:28.215Z,74.32
2023-04-02T08:31:00.100Z,73.67
2023-04-02T08:33:32.446Z,74.55
2023-04-02T08:36:05.791Z,75.36
2023-04-02T08:38:37.727Z,74.38
2023-04-02T08:41:17.945Z,73.89
2023-04-02T08:44:17.966Z,74.31
2023-04-02T08:47:01.284Z,74.49
2023-04-02T08:49:45.905Z,74.73
2023-04-02T08:52:29.583Z,72.20
2023-04-02T08:55:02.519Z,72.88
2023-04-02T08:57:47.416Z,73.81
2023-04-02T09:00:38.050Z,73.11
2023-04-02T09:03:20.402Z,72.34
2023-04-02T09:05:56.884Z,72.93
2023-04-02T09:08:33.156Z,73.16
2023-04-02T09:11:11.242Z,72.51
2023-04-02T09:13:51.863Z,74.07
2023-04-02T09:16:35.046Z,71.85
2023-04-02T09:19:15.884Z,72.20
2023-04-02T09:21:58.885Z,71.95
2023-04-02T09:24:31.854Z,71.69
2023-04-02T09:27:03.769Z,72.03
2023-04-02T09:29:48.583Z,71.86
2023-04-02T09:32:45.670Z,71.76
2023-04-02T09:35:25.986Z,72.51
2023-04-02T09:38:21.561Z,71.50
2023-04-02T09:41:05.386Z,71.31
2023-04-02T09:43:39.203Z,70.53
2023-04-02T09:46:26.048Z,71.71
2023-04-02T09:49:00.915Z,70.60
2023-04-02T09:51:36.522Z,71.04
2023-04-02T09:54:17.504Z,71.48
2023-04-02T09:59:42.613Z,71.11
2023-04-02T10:02:30.623Z,70.42
2023-04-02T10:05:23.520Z,71.82
2023-04-02T10:08:17.760Z,70.37
2023-04-02T10:10:54.213Z,70.53
2023-04-02T10:13:34.704Z,69.24
2023-04-02T10:16:14.245Z,70.59
2023-04-02T10:18:53.549Z,69.10
2023-04-02T10:21:30.271Z,68.87
2023-04-02T10:24:05.175Z,68.74
2023-04-02T10:26:58.958Z,68.85
2023-04-02T10:30:01.989Z,67.81
2023-04-02T10:32:43.950Z,66.99
2023-04-02T10:35:29.081Z,67.09
2023-04-02T10:38:22.810Z,69.64
2023-04-02T10:41:07.082Z,66.93
2023-04-02T10:44:16.813Z,68.30
2023-04-02T10:47:08.495Z,68.18
2023-04-02T10:49:56.193Z,66.97
2023-04-02T10:52:38.046Z,68.21
2023-04-02T10:55:19.078Z,66.54
2023-04-02T10:57:54.148Z,67.31
2023-04-02T11:00:32.403Z,68.48
2023-04-02T11:03:14.070Z,68.81
2023-04-02T11:05:50.866Z,66.73
2023-04-02T11:08:27.647Z,65.57
2023-04-02T11:11:07.872Z,68.37
2023-04-02T11:13:50.062Z,67.86
2023-04-02T11:16:22.409Z,62.44
2023-04-02T11:19:21.457Z,63.85
2023-04-02T11:21:59.868Z,63.06
2023-04-02T11:24:51.041Z,64.30
2023-04-02T11:27:26.962Z,64.10
2023-04-02T11:30:06.352Z,62.91
2023-04-02T11:32:47.344Z,62.02
2023-04-02T11:35:41.330Z,60.14
2023-04-02T11:38:52.811Z,62.94
2023-04-02T11:42:02.896Z,60.55
2023-04-02T11:44:34.479Z,62.18
2023-04-02T11:47:26.905Z,61.19
2023-04-02T11:50:27.305Z,60.12
2023-04-02T11:53:06.589Z,64.07
2023-04-02T11:55:41.366Z,61.00
2023-04-02T11:58:47.513Z,59.22
2023-04-02T12:02:00.653Z,58.01
2023-04-02T12:05:09.230Z,59.58
2023-04-02T12:08:13.555Z,58.63
2023-04-02T12:11:03.368Z,58.25
2023-04-02T12:13:59.552Z,58.69
2023-04-02T12:16:36.774Z,59.10
2023-04-02T12:19:16.499Z,59.78
2023-04-02T12:21:52.953Z,60.17
2023-04-02T12:24:25.881Z,58.82
2023-04-02T12:27:22.504Z,62.30
2023-04-02T12:29:55.873Z,58.37
2023-04-02T12:32:33.189Z,57.96
2023-04-02T12:35:06.187Z,57.41
2023-04-02T12:37:39.683Z,58.66
2023-04-02T12:40:25.642Z,58.90
2023-04-02T12:42:58.959Z,60.49
2023-04-02T12:45:36.561Z,57.22
2023-04-02T12:48:13.507Z,59.29
2023-04-02T12:50:45.647Z,57.31
2023-04-02T12:53:27.203Z,57.77
2023-04-02T12:55:59.517Z,56.70
2023-04-02T12:58:37.197Z,55.22
2023-04-02T13:01:21.244Z,54.48
2023-04-02T13:04:03.072Z,58.14
2023-04-02T13:06:36.167Z,55.93
2023-04-02T13:09:28.759Z,59.29
2023-04-02T13:12:01.048Z,56.54
2023-04-02T13:14:35.075Z,53.19
2023-04-02T13:17:25.709Z,55.06
2023-04-02T13:20:16.688Z,55.08
2023-04-02T13:22:50.479Z,54.75
2023-04-02T13:25:33.026Z,53.98
2023-04-02T13:28:04.845Z,52.01
2023-04-02T13:30:38.123Z,52.99
2023-04-02T13:33:12.609Z,53.08
2023-04-02T13:35:45.702Z,51.65
2023-04-02T13:38:17.295Z,50.31
2023-04-02T13:40:49.361Z,52.99
2023-04-02T13:43:23.681Z,53.13
2023-04-02T13:45:59.953Z,51.09
2023-04-02T13:48:31.794Z,52.46
2023-04-02T13:51:04.703Z,54.07
2023-04-02T13:53:39.796Z,52.52
2023-04-02T13:56:12.797Z,53.99
2023-04-02T13:58:44.769Z,52.59
2023-04-02T14:01:19.431Z,52.74
2023-04-02T14:03:51.582Z,53.15
2023-04-02T14:06:49.015Z,50.56
2023-04-02T14:09:34.190Z,49.98
2023-04-02T14:12:20.689Z,49.25
2023-04-02T14:15:09.257Z,48.91
2023-04-02T14:17:58.444Z,49.30
2023-04-02T14:20:41.418Z,49.17
2023-04-02T14:23:45.800Z,47.52
2023-04-02T14:26:39.346Z,48.24
2023-04-02T14:29:22.260Z,48.96
2023-04-02T14:32:05.085Z,48.62
2023-04-02T14:34:47.932Z,48.24
2023-04-02T14:37:29.761Z,48.19
2023-04-02T14:40:15.501Z,47.66
2023-04-02T14:42:54.763Z,48.48
2023-04-02T14:45:54.306Z,46.91
2023-04-02T14:48:41.700Z,46.68
2023-04-02T14:51:22.111Z,47.90
2023-04-02T14:54:02.850Z,48.06
2023-04-02T14:56:41.633Z,47.30
2023-04-02T14:59:29.769Z,48.18
2023-04-02T15:02:08.704Z,49.27
2023-04-02T15:04:46.909Z,49.19
2023-04-02T15:07:28.478Z,48.18
2023-04-02T15:10:17.980Z,49.23
2023-04-02T15:12:52.656Z,48.49
2023-04-02T15:15:40.286Z,49.40
2023-04-02T15:18:15.893Z,49.00
2023-04-02T15:20:58.246Z,46.47
2023-04-02T15:23:44.015Z,45.96
2023-04-02T15:26:26.303Z,45.71
2023-04-02T15:29:25.879Z,44.87
2023-04-02T15:32:16.329Z,46.94
2023-04-02T15:34:57.441Z,46.54
2023-04-02T15:37:34.397Z,45.47
2023-04-02T15:40:30.909Z,46.94
2023-04-02T15:43:15.378Z,48.30
2023-04-02T15:46:13.693Z,47.28
2023-04-02T15:49:24.396Z,49.42
2023-04-02T15:52:08.807Z,48.48
2023-04-02T15:55:11.229Z,48.75
2023-04-02T15:58:20.821Z,47.33
2023-04-02T16:01:04.079Z,48.34
2023-04-02T16:04:19.791Z,47.52
2023-04-02T16:07:13.833Z,48.08
2023-04-02T16:09:58.653Z,48.51
2023-04-02T16:12:34.334Z,48.13
2023-04-02T16:15:23.448Z,48.12
2023-04-02T16:18:02.842Z,49.08
2023-04-02T16:20:42.528Z,47.93
2023-04-02T16:23:24.545Z,49.10
2023-04-02T16:26:12.827Z,48.51
2023-04-02T16:28:55.752Z,49.18
2023-04-02T16:31:39.543Z,48.71
2023-04-02T16:34:24.339Z,48.49
2023-04-02T16:37:09.253Z,48.21
2023-04-02T16:39:50.574Z,49.00
2023-04-02T16:42:34.128Z,48.56
2023-04-02T16:45:25.085Z,49.35
2023-04-02T16:48:12.677Z,49.89
2023-04-02T16:50:57.713Z,48.80
2023-04-02T16:53:58.486Z,49.56
2023-04-02T16:56:46.821Z,50.44
2023-04-02T16:59:28.122Z,49.50
2023-04-02T17:02:04.767Z,49.39
2023-04-02T17:04:59.768Z,50.14
2023-04-02T17:07:45.890Z,51.12
2023-04-02T17:10:31.381Z,50.21
2023-04-02T17:13:18.843Z,50.02
2023-04-02T17:16:03.440Z,50.37
2023-04-02T17:18:36.400Z,51.26
2023-04-02T17:21:15.314Z,51.77
2023-04-02T17:26:30.873Z,51.57
2023-04-02T17:29:09.106Z,51.39
2023-04-02T17:31:43.188Z,51.15
2023-04-02T17:34:18.843Z,51.61
2023-04-02T17:37:01.151Z,51.00
2023-04-02T17:39:49.805Z,51.29
2023-04-02T17:42:35.496Z,51.10
2023-04-02T17:45:15.350Z,51.99
2023-04-02T17:47:57.249Z,51.75
2023-04-02T17:51:03.882Z,51.35
2023-04-02T17:53:50.030Z,51.31
2023-04-02T17:56:40.930Z,51.18
2023-04-02T17:59:38.091Z,51.85
2023-04-02T18:02:37.977Z,51.88
2023-04-02T18:05:22.237Z,52.37
2023-04-02T18:08:04.838Z,52.10
2023-04-02T18:10:47.229Z,53.20
2023-04-02T18:13:33.811Z,52.25
2023-04-02T18:16:42.575Z,52.42
2023-04-02T18:19:21.232Z,52.12
2023-04-02T18:22:03.864Z,53.75
2023-04-02T18:25:06.919Z,52.23
2023-04-02T18:27:56.564Z,52.16
2023-04-02T18:30:37.276Z,53.11
2023-04-02T18:33:36.685Z,53.24
2023-04-02T18:36:18.993Z,53.89
2023-04-02T18:39:01.011Z,54.17
2023-04-02T18:41:47.552Z,53.91
2023-04-02T18:44:43.784Z,53.43
2023-04-02T18:47:23.897Z,54.15
2023-04-02T18:50:15.641Z,53.31
2023-04-02T18:52:49.658Z,54.60
2023-04-02T18:55:27.252Z,53.71
2023-04-02T18:58:07.282Z,53.92
2023-04-02T19:00:45.600Z,53.77
2023-04-02T19:03:24.088Z,53.57
2023-04-02T19:06:00.910Z,53.51
2023-04-02T19:08:40.251Z,53.73
2023-04-02T19:11:17.458Z,54.67
2023-04-02T19:13:51.319Z,55.24
2023-04-02T19:16:58.449Z,55.16
2023-04-02T19:19:38.114Z,55.00
2023-04-02T19:22:26.275Z,56.08
2023-04-02T19:25:35.819Z,55.80
2023-04-02T19:28:20.168Z,54.96
2023-04-02T19:31:20.369Z,55.96
2023-04-02T19:34:03.792Z,55.91
2023-04-02T19:36:47.182Z,56.32
2023-04-02T19:39:46.642Z,55.91
2023-04-02T19:42:34.980Z,56.33
2023-04-02T19:45:20.308Z,57.66
2023-04-02T19:47:52.038Z,56.12
2023-04-02T19:50:25.606Z,56.79
2023-04-02T19:52:57.615Z,56.63
2023-04-02T19:55:30.616Z,56.71
2023-04-02T19:58:13.186Z,56.14
2023-04-02T20:00:51.054Z,57.10
2023-04-02T20:03:22.975Z,56.39
2023-04-02T20:05:56.864Z,56.14
2023-04-02T20:08:28.970Z,56.59
2023-04-02T20:11:01.931Z,57.04
2023-04-02T20:13:33.856Z,56.33
2023-04-02T20:16:08.451Z,58.20
2023-04-02T20:18:40.251Z,56.70
2023-04-02T20:21:14.020Z,56.68
2023-04-02T20:23:46.023Z,58.06
2023-04-02T20:26:18.083Z,58.01
2023-04-02T20:28:50.030Z,57.64
2023-04-02T20:31:23.228Z,57.72
2023-04-02T20:33:58.740Z,58.41
2023-04-02T20:36:32.287Z,57.47
2023-04-02T20:39:07.059Z,58.37
2023-04-02T20:41:38.834Z,58.11
2023-04-02T20:44:11.089Z,58.26
2023-04-02T20:46:42.707Z,58.10
2023-04-02T20:49:14.563Z,58.57
2023-04-02T20:51:48.547Z,58.31
2023-04-02T20:54:20.767Z,58.82
2023-04-02T20:56:52.615Z,59.18
2023-04-02T20:59:24.220Z,60.14
2023-04-02T21:01:56.258Z,59.61
2023-04-02T21:04:28.152Z,59.60
2023-04-02T21:07:01.186Z,58.39
2023-04-02T21:09:33.023Z,58.77
2023-04-02T21:12:04.752Z,58.93
2023-04-02T21:14:38.949Z,59.28
2023-04-02T21:17:11.095Z,59.81
2023-04-02T21:19:42.804Z,59.04
2023-04-02T21:22:17.079Z,59.37
2023-04-02T21:24:49.009Z,59.34
2023-04-02T21:27:22.210Z,59.76
2023-04-02T21:29:53.939Z,60.09
2023-04-02T21:32:25.710Z,59.96
2023-04-02T21:34:57.385Z,60.27
2023-04-02T21:37:30.664Z,60.76
2023-04-02T21:40:02.584Z,61.25
2023-04-02T21:42:34.419Z,61.61
2023-04-02T21:45:06.400Z,60.99
2023-04-02T21:47:38.282Z,60.55
2023-04-02T21:50:11.111Z,60.98
2023-04-02T21:52:44.327Z,61.12
2023-04-02T21:55:16.296Z,61.38
2023-04-02T21:57:48.106Z,62.28
2023-04-02T22:00:21.117Z,62.51
2023-04-02T22:02:52.886Z,60.93
2023-04-02T22:05:24.795Z,61.66
2023-04-02T22:07:57.956Z,62.50
2023-04-02T22:10:29.786Z,61.49
2023-04-02T22:13:02.411Z,62.40
2023-04-02T22:15:36.644Z,62.12
2023-04-02T22:18:09.143Z,63.33
2023-04-02T22:20:43.828Z,62.43
2023-04-02T22:23:18.251Z,62.31
2023-04-02T22:25:50.540Z,63.32
2023-04-02T22:28:22.595Z,63.03
2023-04-02T22:30:54.913Z,62.89
2023-04-02T22:33:27.978Z,63.26
2023-04-02T22:36:00.415Z,63.28
2023-04-02T22:38:34.905Z,62.71
2023-04-02T22:41:09.812Z,63.10
2023-04-02T22:43:44.069Z,63.20
2023-04-02T22:46:19.066Z,63.43
2023-04-02T22:48:52.435Z,63.46
2023-04-02T22:51:27.517Z,64.55
2023-04-02T22:54:01.337Z,64.19
2023-04-02T22:56:35.283Z,63.85
2023-04-02T22:59:06.951Z,64.20
2023-04-02T23:01:39.886Z,64.25
2023-04-02T23:04:12.087Z,64.26
2023-04-02T23:06:43.751Z,64.73
2023-04-02T23:09:16.805Z,64.36
2023-04-02T23:11:48.769Z,64.85
2023-04-02T23:14:20.675Z,64.61
2023-04-02T23:16:52.493Z,65.24
2023-04-02T23:19:24.443Z,65.09
2023-04-02T23:21:56.205Z,64.69
2023-04-02T23:24:29.209Z,65.59
2023-04-02T23:27:01.026Z,65.69
2023-04-02T23:29:32.961Z,64.94
2023-04-02T23:32:04.863Z,65.79
2023-04-02T23:34:36.676Z,65.86
2023-04-02T23:37:08.580Z,66.07
2023-04-02T23:39:41.751Z,66.71
2023-04-02T23:42:13.975Z,66.57
2023-04-02T23:44:45.796Z,66.74
2023-04-02T23:47:17.636Z,66.46
2023-04-02T23:49:49.436Z,66.39
2023-04-02T23:52:21.238Z,66.42
2023-04-02T23:54:54.404Z,66.39
2023-04-02T23:57:26.341Z,66.23
2023-04-02T23:59:58.161Z,67.22
